Observations for Trim Patrick St
| Time | AQI | Temp °C | Hum % | Pres Pa | CO μg/m³ | H₂S μg/m³ | NO μg/m³ | NO₂ μg/m³ | O₃ μg/m³ | SO₂ μg/m³ | PM1 μg/m³ | PM2.5 μg/m³ | PM10 μg/m³ |
|---|---|---|---|---|---|---|---|---|---|---|---|---|---|
| Friday 31 July 2026 | |||||||||||||
| 20:15 | 3 | 19.5 | 49 | 68,737 | 0 | 11.32 | 1.23 | 21.54 | 57.13 | 3.84 | 7.14 | 14.89 | 16.38 |
| 20:14 | 3 | 19.6 | 49 | 68,751 | 0 | 10.87 | 1.23 | 20.01 | 57.57 | 3.59 | 6.29 | 12.59 | 13.85 |
| 20:13 | 3 | 19.6 | 48 | 68,774 | 0 | 11.9 | 1.25 | 24.34 | 55.36 | 3.45 | 9.71 | 16.47 | 18.12 |
| 20:12 | 3 | 19.7 | 49 | 68,739 | 0 | 11.77 | 1.24 | 20.31 | 59.54 | 3.67 | 10.57 | 17.23 | 18.95 |
| 20:11 | 3 | 19.7 | 48 | 68,755 | 0 | 11.82 | 1.25 | 21 | 58.61 | 3.54 | 8.86 | 16.47 | 18.12 |
| 20:10 | 3 | 19.7 | 49 | 68,747 | 0 | 10.61 | 1.24 | 21.38 | 60.37 | 3.03 | 8.86 | 17.98 | 19.78 |
| 20:09 | 3 | 19.8 | 49 | 68,774 | 0 | 11.42 | 1.24 | 19.22 | 59.37 | 3.47 | 9.71 | 18 | 19.8 |
| 20:08 | 3 | 19.8 | 49 | 68,770 | 0 | 11.21 | 1.25 | 20.89 | 61.07 | 3.57 | 10.57 | 19.51 | 21.46 |
| 20:07 | 3 | 19.8 | 48 | 68,768 | 0 | 11.85 | 1.28 | 24.51 | 52.92 | 4.2 | 13.14 | 23.47 | 25.82 |
| 20:06 | 3 | 19.9 | 48 | 68,759 | 0 | 11.9 | 1.26 | 32.75 | 50.51 | 4.21 | 17.43 | 26.46 | 29.11 |
| 20:05 | 3 | 19.9 | 47 | 68,784 | 0 | 11.84 | 1.29 | 17.76 | 60.1 | 3.96 | 16.57 | 25.81 | 26.75 |
| 20:04 | 3 | 20 | 48 | 68,784 | 0.02 | 12.42 | 1.31 | 19.15 | 61.5 | 4.02 | 20 | 29.62 | 35.03 |
| 20:03 | 3 | 20 | 48 | 68,788 | 0.02 | 13.19 | 1.29 | 22.34 | 60.52 | 4.16 | 19.14 | 31.14 | 35 |
| 20:02 | 3 | 20.1 | 48 | 68,757 | 0.03 | 13.18 | 1.31 | 19.4 | 60.19 | 4.26 | 20.86 | 34.24 | 41.55 |
| 20:01 | 3 | 20.1 | 47 | 68,749 | 0.05 | 13.61 | 1.33 | 25.5 | 54.02 | 4.45 | 20.86 | 32.03 | 38.04 |
| 20:00 | 3 | 20.2 | 48 | 68,774 | 0.1 | 11.42 | 1.28 | 17.59 | 61.46 | 3.6 | 22.57 | 35.72 | 46.97 |
| 19:59 | 3 | 20.2 | 47 | 68,772 | 0.1 | 14.1 | 1.31 | 24.18 | 57.81 | 4.49 | 20 | 33.58 | 39 |
| 19:58 | 3 | 20.3 | 47 | 68,768 | 0.1 | 13.52 | 1.31 | 23.28 | 58.34 | 4.34 | 21.72 | 35.08 | 47.29 |
| 19:57 | 3 | 20.3 | 47 | 68,768 | 0.09 | 13.21 | 1.29 | 23.28 | 57.53 | 4.34 | 21.72 | 33.57 | 42.7 |
| 19:56 | 3 | 20.4 | 46 | 68,761 | 0.09 | 13.37 | 1.31 | 19.05 | 60.61 | 4.62 | 21.72 | 37.48 | 47.5 |